sensor_id;sensor_type;location;lat;lon;timestamp;pressure;altitude;pressure_sealevel;temperature;humidity
44140;BME280;29803;51.048;4.686;2023-03-03T00:01:51;102336.72;;;0.68;100.00
44140;BME280;29803;51.048;4.686;2023-03-03T00:04:22;102343.78;;;0.68;100.00
44140;BME280;29803;51.048;4.686;2023-03-03T00:06:52;102346.53;;;0.65;100.00
44140;BME280;29803;51.048;4.686;2023-03-03T00:09:23;102340.56;;;0.61;100.00
44140;BME280;29803;51.048;4.686;2023-03-03T00:11:55;102352.94;;;0.59;100.00
44140;BME280;29803;51.048;4.686;2023-03-03T00:14:29;102348.69;;;0.57;100.00
44140;BME280;29803;51.048;4.686;2023-03-03T00:17:15;102354.16;;;0.52;100.00
44140;BME280;29803;51.048;4.686;2023-03-03T00:19:50;102350.66;;;0.51;100.00
44140;BME280;29803;51.048;4.686;2023-03-03T00:22:28;102350.78;;;0.48;100.00
44140;BME280;29803;51.048;4.686;2023-03-03T00:27:50;102354.41;;;0.46;100.00
44140;BME280;29803;51.048;4.686;2023-03-03T00:30:39;102354.53;;;0.43;100.00
44140;BME280;29803;51.048;4.686;2023-03-03T00:39:26;102349.88;;;0.28;100.00
44140;BME280;29803;51.048;4.686;2023-03-03T00:41:58;102358.84;;;0.23;100.00
44140;BME280;29803;51.048;4.686;2023-03-03T00:47:23;102362.78;;;0.13;100.00
44140;BME280;29803;51.048;4.686;2023-03-03T00:52:46;102363.16;;;0.04;100.00
44140;BME280;29803;51.048;4.686;2023-03-03T00:55:21;102363.34;;;-0.01;100.00
44140;BME280;29803;51.048;4.686;2023-03-03T00:57:51;102360.88;;;-0.05;100.00
44140;BME280;29803;51.048;4.686;2023-03-03T01:00:22;102368.06;;;-0.09;100.00
44140;BME280;29803;51.048;4.686;2023-03-03T01:02:52;102370.03;;;-0.14;100.00
44140;BME280;29803;51.048;4.686;2023-03-03T01:05:23;102360.44;;;-0.16;100.00
44140;BME280;29803;51.048;4.686;2023-03-03T01:07:53;102359.59;;;-0.17;100.00
44140;BME280;29803;51.048;4.686;2023-03-03T01:10:26;102364.00;;;-0.17;100.00
44140;BME280;29803;51.048;4.686;2023-03-03T01:12:57;102361.47;;;-0.20;100.00
44140;BME280;29803;51.048;4.686;2023-03-03T01:15:28;102366.03;;;-0.24;100.00
44140;BME280;29803;51.048;4.686;2023-03-03T01:17:58;102369.72;;;-0.28;100.00
44140;BME280;29803;51.048;4.686;2023-03-03T01:20:29;102368.03;;;-0.31;100.00
44140;BME280;29803;51.048;4.686;2023-03-03T01:23:00;102359.34;;;-0.33;100.00
44140;BME280;29803;51.048;4.686;2023-03-03T01:25:30;102369.94;;;-0.34;100.00
44140;BME280;29803;51.048;4.686;2023-03-03T01:28:01;102375.34;;;-0.37;100.00
44140;BME280;29803;51.048;4.686;2023-03-03T01:30:32;102373.69;;;-0.40;100.00
44140;BME280;29803;51.048;4.686;2023-03-03T01:33:03;102374.66;;;-0.42;100.00
44140;BME280;29803;51.048;4.686;2023-03-03T01:35:34;102373.03;;;-0.46;100.00
44140;BME280;29803;51.048;4.686;2023-03-03T01:38:05;102373.03;;;-0.46;100.00
44140;BME280;29803;51.048;4.686;2023-03-03T01:40:36;102380.09;;;-0.47;100.00
44140;BME280;29803;51.048;4.686;2023-03-03T01:43:07;102370.41;;;-0.46;100.00
44140;BME280;29803;51.048;4.686;2023-03-03T01:46:18;102373.03;;;-0.46;100.00
44140;BME280;29803;51.048;4.686;2023-03-03T01:48:37;102369.53;;;-0.47;100.00
44140;BME280;29803;51.048;4.686;2023-03-03T01:53:48;102373.09;;;-0.48;100.00
44140;BME280;29803;51.048;4.686;2023-03-03T01:56:19;102367.84;;;-0.48;100.00
44140;BME280;29803;51.048;4.686;2023-03-03T01:59:08;102366.91;;;-0.47;100.00
44140;BME280;29803;51.048;4.686;2023-03-03T02:01:41;102363.41;;;-0.47;100.00
44140;BME280;29803;51.048;4.686;2023-03-03T02:04:12;102358.13;;;-0.47;100.00
44140;BME280;29803;51.048;4.686;2023-03-03T02:06:46;102359.16;;;-0.52;100.00
44140;BME280;29803;51.048;4.686;2023-03-03T02:12:11;102343.41;;;-0.53;100.00
44140;BME280;29803;51.048;4.686;2023-03-03T02:14:43;102359.31;;;-0.55;100.00
44140;BME280;29803;51.048;4.686;2023-03-03T02:17:14;102351.41;;;-0.55;100.00
44140;BME280;29803;51.048;4.686;2023-03-03T02:22:48;102347.22;;;-0.60;100.00
44140;BME280;29803;51.048;4.686;2023-03-03T02:28:49;102357.97;;;-0.66;100.00
44140;BME280;29803;51.048;4.686;2023-03-03T02:31:39;102352.75;;;-0.68;100.00
44140;BME280;29803;51.048;4.686;2023-03-03T02:34:30;102348.44;;;-0.70;100.00
44140;BME280;29803;51.048;4.686;2023-03-03T02:37:02;102349.38;;;-0.71;100.00
44140;BME280;29803;51.048;4.686;2023-03-03T02:39:33;102352.16;;;-0.74;100.00
44140;BME280;29803;51.048;4.686;2023-03-03T02:42:18;102352.19;;;-0.76;100.00
44140;BME280;29803;51.048;4.686;2023-03-03T02:44:50;102359.97;;;-0.73;100.00
44140;BME280;29803;51.048;4.686;2023-03-03T02:47:21;102355.34;;;-0.66;100.00
44140;BME280;29803;51.048;4.686;2023-03-03T02:49:52;102355.91;;;-0.58;100.00
44140;BME280;29803;51.048;4.686;2023-03-03T02:52:22;102360.78;;;-0.47;100.00
44140;BME280;29803;51.048;4.686;2023-03-03T02:54:53;102361.28;;;-0.38;100.00
44140;BME280;29803;51.048;4.686;2023-03-03T02:57:28;102360.00;;;-0.28;100.00
44140;BME280;29803;51.048;4.686;2023-03-03T02:59:59;102356.16;;;-0.19;100.00
44140;BME280;29803;51.048;4.686;2023-03-03T03:02:31;102354.06;;;-0.11;100.00
44140;BME280;29803;51.048;4.686;2023-03-03T03:05:02;102362.53;;;-0.03;100.00
44140;BME280;29803;51.048;4.686;2023-03-03T03:07:33;102363.16;;;0.04;100.00
44140;BME280;29803;51.048;4.686;2023-03-03T03:10:04;102365.56;;;0.10;100.00
44140;BME280;29803;51.048;4.686;2023-03-03T03:12:34;102372.41;;;0.14;100.00
44140;BME280;29803;51.048;4.686;2023-03-03T03:15:06;102366.84;;;0.22;100.00
44140;BME280;29803;51.048;4.686;2023-03-03T03:17:39;102364.06;;;0.25;100.00
44140;BME280;29803;51.048;4.686;2023-03-03T03:20:10;102375.34;;;0.29;100.00
44140;BME280;29803;51.048;4.686;2023-03-03T03:22:41;102377.88;;;0.32;100.00
44140;BME280;29803;51.048;4.686;2023-03-03T03:25:11;102373.38;;;0.34;100.00
44140;BME280;29803;51.048;4.686;2023-03-03T03:27:42;102378.63;;;0.35;100.00
44140;BME280;29803;51.048;4.686;2023-03-03T03:30:12;102374.88;;;0.41;100.00
44140;BME280;29803;51.048;4.686;2023-03-03T03:32:43;102376.50;;;0.43;100.00
44140;BME280;29803;51.048;4.686;2023-03-03T03:35:15;102367.53;;;0.47;100.00
44140;BME280;29803;51.048;4.686;2023-03-03T03:37:46;102371.59;;;0.56;100.00
44140;BME280;29803;51.048;4.686;2023-03-03T03:40:17;102379.38;;;0.59;100.00
44140;BME280;29803;51.048;4.686;2023-03-03T03:42:47;102373.03;;;0.63;100.00
44140;BME280;29803;51.048;4.686;2023-03-03T03:45:18;102374.16;;;0.58;100.00
44140;BME280;29803;51.048;4.686;2023-03-03T03:47:49;102376.72;;;0.59;100.00
44140;BME280;29803;51.048;4.686;2023-03-03T03:50:19;102383.72;;;0.60;100.00
44140;BME280;29803;51.048;4.686;2023-03-03T03:52:50;102385.50;;;0.60;100.00
44140;BME280;29803;51.048;4.686;2023-03-03T03:55:20;102399.81;;;0.54;100.00
44140;BME280;29803;51.048;4.686;2023-03-03T03:57:52;102393.50;;;0.58;100.00
44140;BME280;29803;51.048;4.686;2023-03-03T04:00:23;102393.44;;;0.60;100.00
44140;BME280;29803;51.048;4.686;2023-03-03T04:02:53;102394.28;;;0.60;100.00
44140;BME280;29803;51.048;4.686;2023-03-03T04:05:24;102405.78;;;0.59;100.00
44140;BME280;29803;51.048;4.686;2023-03-03T04:07:55;102414.06;;;0.50;100.00
44140;BME280;29803;51.048;4.686;2023-03-03T04:10:25;102400.00;;;0.49;100.00
44140;BME280;29803;51.048;4.686;2023-03-03T04:12:56;102409.59;;;0.52;100.00
44140;BME280;29803;51.048;4.686;2023-03-03T04:15:26;102414.81;;;0.54;100.00
44140;BME280;29803;51.048;4.686;2023-03-03T04:17:57;102406.78;;;0.57;100.00
44140;BME280;29803;51.048;4.686;2023-03-03T04:20:27;102407.56;;;0.59;100.00
44140;BME280;29803;51.048;4.686;2023-03-03T04:22:58;102411.97;;;0.58;100.00
44140;BME280;29803;51.048;4.686;2023-03-03T04:25:28;102411.06;;;0.59;100.00
44140;BME280;29803;51.048;4.686;2023-03-03T04:27:59;102410.94;;;0.62;100.00
44140;BME280;29803;51.048;4.686;2023-03-03T04:30:29;102412.66;;;0.63;100.00
44140;BME280;29803;51.048;4.686;2023-03-03T04:33:00;102418.75;;;0.65;100.00
44140;BME280;29803;51.048;4.686;2023-03-03T04:35:31;102421.38;;;0.65;100.00
44140;BME280;29803;51.048;4.686;2023-03-03T04:38:01;102416.03;;;0.67;100.00
44140;BME280;29803;51.048;4.686;2023-03-03T04:40:32;102408.91;;;0.69;100.00
44140;BME280;29803;51.048;4.686;2023-03-03T04:43:02;102414.25;;;0.67;100.00
44140;BME280;29803;51.048;4.686;2023-03-03T04:45:33;102421.44;;;0.64;100.00
44140;BME280;29803;51.048;4.686;2023-03-03T04:48:04;102420.03;;;0.55;100.00
44140;BME280;29803;51.048;4.686;2023-03-03T04:50:34;102421.78;;;0.56;100.00
44140;BME280;29803;51.048;4.686;2023-03-03T04:53:05;102426.38;;;0.51;100.00
44140;BME280;29803;51.048;4.686;2023-03-03T04:55:36;102429.88;;;0.51;100.00
44140;BME280;29803;51.048;4.686;2023-03-03T04:58:07;102432.56;;;0.50;100.00
44140;BME280;29803;51.048;4.686;2023-03-03T05:00:39;102427.34;;;0.48;100.00
44140;BME280;29803;51.048;4.686;2023-03-03T05:03:11;102437.72;;;0.53;100.00
44140;BME280;29803;51.048;4.686;2023-03-03T05:05:42;102427.91;;;0.57;100.00
44140;BME280;29803;51.048;4.686;2023-03-03T05:08:12;102435.56;;;0.63;100.00
44140;BME280;29803;51.048;4.686;2023-03-03T05:10:43;102436.50;;;0.62;100.00
44140;BME280;29803;51.048;4.686;2023-03-03T05:13:13;102442.56;;;0.64;100.00
44140;BME280;29803;51.048;4.686;2023-03-03T05:16:04;102436.63;;;0.59;100.00
44140;BME280;29803;51.048;4.686;2023-03-03T05:18:35;102447.06;;;0.62;100.00
44140;BME280;29803;51.048;4.686;2023-03-03T05:21:06;102449.63;;;0.63;100.00
44140;BME280;29803;51.048;4.686;2023-03-03T05:23:36;102445.09;;;0.67;100.00
44140;BME280;29803;51.048;4.686;2023-03-03T05:26:07;102440.75;;;0.66;100.00
44140;BME280;29803;51.048;4.686;2023-03-03T05:28:37;102443.75;;;0.57;100.00
44140;BME280;29803;51.048;4.686;2023-03-03T05:31:08;102446.59;;;0.52;100.00
44140;BME280;29803;51.048;4.686;2023-03-03T05:33:38;102450.19;;;0.49;100.00
44140;BME280;29803;51.048;4.686;2023-03-03T05:36:09;102450.81;;;0.56;100.00
44140;BME280;29803;51.048;4.686;2023-03-03T05:38:39;102455.28;;;0.54;100.00
44140;BME280;29803;51.048;4.686;2023-03-03T05:41:10;102455.34;;;0.52;100.00
44140;BME280;29803;51.048;4.686;2023-03-03T05:43:40;102464.31;;;0.48;100.00
44140;BME280;29803;51.048;4.686;2023-03-03T05:46:11;102459.28;;;0.42;100.00
44140;BME280;29803;51.048;4.686;2023-03-03T05:48:42;102456.66;;;0.42;100.00
44140;BME280;29803;51.048;4.686;2023-03-03T05:51:12;102461.88;;;0.44;100.00
44140;BME280;29803;51.048;4.686;2023-03-03T05:53:43;102453.25;;;0.39;100.00
44140;BME280;29803;51.048;4.686;2023-03-03T05:56:13;102458.88;;;0.31;100.00
44140;BME280;29803;51.048;4.686;2023-03-03T05:58:44;102453.94;;;0.44;100.00
44140;BME280;29803;51.048;4.686;2023-03-03T06:01:14;102460.22;;;0.41;100.00
44140;BME280;29803;51.048;4.686;2023-03-03T06:03:45;102462.84;;;0.41;100.00
44140;BME280;29803;51.048;4.686;2023-03-03T06:06:15;102468.25;;;0.38;100.00
44140;BME280;29803;51.048;4.686;2023-03-03T06:08:48;102473.78;;;0.32;100.00
44140;BME280;29803;51.048;4.686;2023-03-03T06:11:18;102476.34;;;0.34;100.00
44140;BME280;29803;51.048;4.686;2023-03-03T06:13:49;102480.03;;;0.30;100.00
44140;BME280;29803;51.048;4.686;2023-03-03T06:16:20;102483.72;;;0.25;100.00
44140;BME280;29803;51.048;4.686;2023-03-03T06:18:50;102479.41;;;0.23;100.00
44140;BME280;29803;51.048;4.686;2023-03-03T06:21:21;102478.66;;;0.19;100.00
44140;BME280;29803;51.048;4.686;2023-03-03T06:23:51;102479.47;;;0.21;100.00
44140;BME280;29803;51.048;4.686;2023-03-03T06:26:22;102487.25;;;0.24;100.00
44140;BME280;29803;51.048;4.686;2023-03-03T06:28:53;102483.91;;;0.21;100.00
44140;BME280;29803;51.048;4.686;2023-03-03T06:31:25;102487.59;;;0.17;100.00
44140;BME280;29803;51.048;4.686;2023-03-03T06:33:55;102485.00;;;0.15;100.00
44140;BME280;29803;51.048;4.686;2023-03-03T06:36:27;102497.28;;;0.16;100.00
44140;BME280;29803;51.048;4.686;2023-03-03T06:38:58;102497.28;;;0.16;100.00
44140;BME280;29803;51.048;4.686;2023-03-03T06:41:28;102496.09;;;0.23;100.00
44140;BME280;29803;51.048;4.686;2023-03-03T06:44:00;102502.88;;;0.31;100.00
44140;BME280;29803;51.048;4.686;2023-03-03T06:46:30;102502.66;;;0.37;100.00
44140;BME280;29803;51.048;4.686;2023-03-03T06:49:00;102507.94;;;0.37;100.00
44140;BME280;29803;51.048;4.686;2023-03-03T06:51:35;102508.72;;;0.39;100.00
44140;BME280;29803;51.048;4.686;2023-03-03T06:54:13;102509.38;;;0.44;100.00
44140;BME280;29803;51.048;4.686;2023-03-03T06:56:44;102524.88;;;0.53;100.00
44140;BME280;29803;51.048;4.686;2023-03-03T06:59:20;102516.69;;;0.59;100.00
44140;BME280;29803;51.048;4.686;2023-03-03T07:01:51;102524.09;;;0.51;100.00
44140;BME280;29803;51.048;4.686;2023-03-03T07:04:41;102526.66;;;0.52;100.00
44140;BME280;29803;51.048;4.686;2023-03-03T07:07:28;102539.06;;;0.50;100.00
44140;BME280;29803;51.048;4.686;2023-03-03T07:09:59;102538.09;;;0.53;100.00
44140;BME280;29803;51.048;4.686;2023-03-03T07:12:29;102536.28;;;0.54;100.00
44140;BME280;29803;51.048;4.686;2023-03-03T07:17:30;102545.91;;;0.56;100.00
44140;BME280;29803;51.048;4.686;2023-03-03T07:20:01;102551.09;;;0.58;100.00
44140;BME280;29803;51.048;4.686;2023-03-03T07:22:31;102554.59;;;0.58;100.00
44140;BME280;29803;51.048;4.686;2023-03-03T07:25:18;102557.06;;;0.63;100.00
44140;BME280;29803;51.048;4.686;2023-03-03T07:27:49;102553.50;;;0.64;100.00
44140;BME280;29803;51.048;4.686;2023-03-03T07:30:38;102569.41;;;0.62;100.00
44140;BME280;29803;51.048;4.686;2023-03-03T07:36:23;102571.06;;;0.65;100.00
44140;BME280;29803;51.048;4.686;2023-03-03T07:38:59;102575.38;;;0.67;100.00
44140;BME280;29803;51.048;4.686;2023-03-03T07:41:33;102574.47;;;0.68;100.00
44140;BME280;29803;51.048;4.686;2023-03-03T07:44:11;102581.41;;;0.71;100.00
44140;BME280;29803;51.048;4.686;2023-03-03T07:46:47;102574.34;;;0.71;100.00
44140;BME280;29803;51.048;4.686;2023-03-03T07:49:34;102584.78;;;0.74;100.00
44140;BME280;29803;51.048;4.686;2023-03-03T07:55:35;102584.34;;;0.85;100.00
44140;BME280;29803;51.048;4.686;2023-03-03T08:03:15;102583.97;;;0.94;100.00
44140;BME280;29803;51.048;4.686;2023-03-03T08:05:47;102584.13;;;0.91;100.00
44140;BME280;29803;51.048;4.686;2023-03-03T08:08:32;102585.66;;;0.97;100.00
44140;BME280;29803;51.048;4.686;2023-03-03T08:11:06;102579.56;;;0.95;100.00
44140;BME280;29803;51.048;4.686;2023-03-03T08:13:40;102586.63;;;0.94;100.00
44140;BME280;29803;51.048;4.686;2023-03-03T08:18:44;102588.16;;;1.00;100.00
44140;BME280;29803;51.048;4.686;2023-03-03T08:21:18;102600.31;;;1.04;100.00
44140;BME280;29803;51.048;4.686;2023-03-03T08:23:50;102593.50;;;0.98;100.00
44140;BME280;29803;51.048;4.686;2023-03-03T08:26:24;102588.97;;;1.02;100.00
44140;BME280;29803;51.048;4.686;2023-03-03T08:28:54;102602.97;;;1.04;100.00
44140;BME280;29803;51.048;4.686;2023-03-03T08:31:25;102602.03;;;1.05;100.00
44140;BME280;29803;51.048;4.686;2023-03-03T08:33:56;102605.34;;;1.10;100.00
44140;BME280;29803;51.048;4.686;2023-03-03T08:36:26;102614.53;;;1.01;100.00
44140;BME280;29803;51.048;4.686;2023-03-03T08:38:57;102609.13;;;1.04;100.00
44140;BME280;29803;51.048;4.686;2023-03-03T08:41:27;102621.22;;;1.10;100.00
44140;BME280;29803;51.048;4.686;2023-03-03T08:43:58;102611.41;;;1.14;100.00
44140;BME280;29803;51.048;4.686;2023-03-03T08:46:29;102613.97;;;1.15;100.00
44140;BME280;29803;51.048;4.686;2023-03-03T08:48:59;102619.88;;;1.22;100.00
44140;BME280;29803;51.048;4.686;2023-03-03T08:51:30;102621.47;;;1.26;100.00
44140;BME280;29803;51.048;4.686;2023-03-03T08:54:03;102619.63;;;1.28;100.00
44140;BME280;29803;51.048;4.686;2023-03-03T08:56:34;102632.66;;;1.33;100.00
44140;BME280;29803;51.048;4.686;2023-03-03T08:59:04;102631.81;;;1.32;100.00
44140;BME280;29803;51.048;4.686;2023-03-03T09:01:35;102625.81;;;1.49;100.00
44140;BME280;29803;51.048;4.686;2023-03-03T09:04:05;102637.06;;;1.54;100.00
44140;BME280;29803;51.048;4.686;2023-03-03T09:06:36;102629.59;;;1.64;100.00
44140;BME280;29803;51.048;4.686;2023-03-03T09:09:06;102636.88;;;1.59;100.00
44140;BME280;29803;51.048;4.686;2023-03-03T09:11:37;102637.06;;;1.54;100.00
44140;BME280;29803;51.048;4.686;2023-03-03T09:14:27;102641.41;;;1.55;100.00
44140;BME280;29803;51.048;4.686;2023-03-03T09:16:58;102634.09;;;1.62;100.00
44140;BME280;29803;51.048;4.686;2023-03-03T09:19:31;102636.28;;;1.72;100.00
44140;BME280;29803;51.048;4.686;2023-03-03T09:22:18;102647.38;;;1.80;100.00
44140;BME280;29803;51.048;4.686;2023-03-03T09:24:52;102646.22;;;1.88;100.00
44140;BME280;29803;51.048;4.686;2023-03-03T09:27:39;102645.16;;;1.92;100.00
44140;BME280;29803;51.048;4.686;2023-03-03T09:30:33;102649.41;;;1.96;100.00
44140;BME280;29803;51.048;4.686;2023-03-03T09:33:21;102642.34;;;1.95;100.00
44140;BME280;29803;51.048;4.686;2023-03-03T09:36:02;102651.13;;;1.97;100.00
44140;BME280;29803;51.048;4.686;2023-03-03T09:38:39;102652.72;;;2.01;100.00
44140;BME280;29803;51.048;4.686;2023-03-03T09:52:39;102649.22;;;2.19;100.00
44140;BME280;29803;51.048;4.686;2023-03-03T09:55:34;102655.78;;;2.31;100.00
44140;BME280;29803;51.048;4.686;2023-03-03T10:12:05;102659.03;;;2.94;100.00
44140;BME280;29803;51.048;4.686;2023-03-03T10:17:50;102668.78;;;2.94;100.00
44140;BME280;29803;51.048;4.686;2023-03-03T10:23:23;102671.84;;;3.03;100.00
44140;BME280;29803;51.048;4.686;2023-03-03T10:26:18;102668.34;;;3.03;100.00
44140;BME280;29803;51.048;4.686;2023-03-03T10:29:01;102661.38;;;3.00;100.00
44140;BME280;29803;51.048;4.686;2023-03-03T10:31:43;102671.28;;;2.97;100.00
44140;BME280;29803;51.048;4.686;2023-03-03T10:37:31;102667.81;;;3.14;100.00
44140;BME280;29803;51.048;4.686;2023-03-03T10:40:25;102670.03;;;3.23;100.00
44140;BME280;29803;51.048;4.686;2023-03-03T11:01:07;102668.94;;;3.98;100.00
44140;BME280;29803;51.048;4.686;2023-03-03T11:15:38;102669.75;;;4.15;100.00
44140;BME280;29803;51.048;4.686;2023-03-03T11:18:14;102671.28;;;4.04;100.00
44140;BME280;29803;51.048;4.686;2023-03-03T11:24:15;102662.13;;;4.09;100.00
44140;BME280;29803;51.048;4.686;2023-03-03T11:29:29;102664.66;;;4.61;100.00
44140;BME280;29803;51.048;4.686;2023-03-03T11:41:01;102657.69;;;4.92;100.00
44140;BME280;29803;51.048;4.686;2023-03-03T11:43:55;102652.25;;;4.93;100.00
44140;BME280;29803;51.048;4.686;2023-03-03T11:49:51;102640.56;;;5.12;100.00
44140;BME280;29803;51.048;4.686;2023-03-03T11:55:19;102643.25;;;4.96;100.00
44140;BME280;29803;51.048;4.686;2023-03-03T11:57:57;102639.56;;;4.99;100.00
44140;BME280;29803;51.048;4.686;2023-03-03T12:06:37;102635.25;;;5.12;100.00
44140;BME280;29803;51.048;4.686;2023-03-03T12:12:20;102631.28;;;5.65;100.00
44140;BME280;29803;51.048;4.686;2023-03-03T12:23:40;102625.31;;;6.20;100.00
44140;BME280;29803;51.048;4.686;2023-03-03T12:26:20;102622.84;;;6.31;100.00
44140;BME280;29803;51.048;4.686;2023-03-03T12:32:14;102622.44;;;6.66;100.00
44140;BME280;29803;51.048;4.686;2023-03-03T12:34:53;102619.59;;;6.55;100.00
44140;BME280;29803;51.048;4.686;2023-03-03T12:37:30;102625.09;;;6.66;100.00
44140;BME280;29803;51.048;4.686;2023-03-03T12:40:20;102612.72;;;6.65;100.00
44140;BME280;29803;51.048;4.686;2023-03-03T12:48:51;102617.34;;;6.34;100.00
44140;BME280;29803;51.048;4.686;2023-03-03T13:02:46;102614.84;;;6.60;100.00
44140;BME280;29803;51.048;4.686;2023-03-03T13:05:39;102614.66;;;6.48;100.00
44140;BME280;29803;51.048;4.686;2023-03-03T13:11:44;102604.19;;;6.45;100.00
44140;BME280;29803;51.048;4.686;2023-03-03T13:17:16;102594.00;;;6.93;100.00
44140;BME280;29803;51.048;4.686;2023-03-03T13:20:00;102584.16;;;7.21;100.00
44140;BME280;29803;51.048;4.686;2023-03-03T13:22:38;102582.41;;;7.47;100.00
44140;BME280;29803;51.048;4.686;2023-03-03T13:31:14;102593.94;;;7.35;100.00
44140;BME280;29803;51.048;4.686;2023-03-03T13:33:54;102587.13;;;7.43;100.00
44140;BME280;29803;51.048;4.686;2023-03-03T13:39:11;102597.06;;;7.14;100.00
44140;BME280;29803;51.048;4.686;2023-03-03T13:41:58;102584.00;;;7.37;100.00
44140;BME280;29803;51.048;4.686;2023-03-03T13:44:49;102581.34;;;7.49;100.00
44140;BME280;29803;51.048;4.686;2023-03-03T13:50:22;102573.25;;;7.11;100.00
44140;BME280;29803;51.048;4.686;2023-03-03T14:04:41;102566.38;;;7.34;100.00
44140;BME280;29803;51.048;4.686;2023-03-03T14:07:20;102558.28;;;7.48;100.00
44140;BME280;29803;51.048;4.686;2023-03-03T14:10:16;102556.69;;;7.71;100.00
44140;BME280;29803;51.048;4.686;2023-03-03T14:15:43;102554.78;;;7.73;100.00
44140;BME280;29803;51.048;4.686;2023-03-03T14:18:30;102558.53;;;7.96;100.00
44140;BME280;29803;51.048;4.686;2023-03-03T14:21:10;102563.13;;;7.82;100.00
44140;BME280;29803;51.048;4.686;2023-03-03T14:24:05;102557.88;;;7.55;100.00
44140;BME280;29803;51.048;4.686;2023-03-03T14:26:50;102548.03;;;7.68;100.00
44140;BME280;29803;51.048;4.686;2023-03-03T14:29:37;102555.44;;;7.90;100.00
44140;BME280;29803;51.048;4.686;2023-03-03T14:32:22;102555.09;;;8.20;100.00
44140;BME280;29803;51.048;4.686;2023-03-03T14:35:14;102555.91;;;8.46;100.00
44140;BME280;29803;51.048;4.686;2023-03-03T14:37:49;102551.06;;;7.89;100.00
44140;BME280;29803;51.048;4.686;2023-03-03T14:40:21;102547.53;;;7.88;100.00
44140;BME280;29803;51.048;4.686;2023-03-03T14:45:41;102539.50;;;8.14;100.00
44140;BME280;29803;51.048;4.686;2023-03-03T14:51:16;102538.53;;;8.15;100.00
44140;BME280;29803;51.048;4.686;2023-03-03T14:53:52;102537.88;;;8.11;100.00
44140;BME280;29803;51.048;4.686;2023-03-03T14:56:27;102539.06;;;7.94;100.00
44140;BME280;29803;51.048;4.686;2023-03-03T14:59:18;102538.88;;;7.85;100.00
44140;BME280;29803;51.048;4.686;2023-03-03T15:04:47;102528.50;;;7.55;100.00
44140;BME280;29803;51.048;4.686;2023-03-03T15:07:34;102529.22;;;7.57;100.00
44140;BME280;29803;51.048;4.686;2023-03-03T15:10:09;102525.59;;;7.58;100.00
44140;BME280;29803;51.048;4.686;2023-03-03T15:12:42;102528.69;;;7.51;100.00
44140;BME280;29803;51.048;4.686;2023-03-03T15:15:31;102534.41;;;7.33;100.00
44140;BME280;29803;51.048;4.686;2023-03-03T15:18:09;102527.78;;;7.25;100.00
44140;BME280;29803;51.048;4.686;2023-03-03T15:21:03;102534.22;;;7.36;100.00
44140;BME280;29803;51.048;4.686;2023-03-03T15:29:33;102521.66;;;7.63;100.00
44140;BME280;29803;51.048;4.686;2023-03-03T15:35:03;102516.84;;;7.56;100.00
44140;BME280;29803;51.048;4.686;2023-03-03T15:40:59;102511.47;;;7.30;100.00
44140;BME280;29803;51.048;4.686;2023-03-03T15:43:39;102509.16;;;7.38;100.00
44140;BME280;29803;51.048;4.686;2023-03-03T15:46:34;102513.81;;;7.47;100.00
44140;BME280;29803;51.048;4.686;2023-03-03T16:04:09;102505.59;;;7.38;100.00
44140;BME280;29803;51.048;4.686;2023-03-03T16:09:44;102507.75;;;7.45;100.00
44140;BME280;29803;51.048;4.686;2023-03-03T16:27:26;102504.22;;;7.45;100.00
44140;BME280;29803;51.048;4.686;2023-03-03T16:30:05;102512.75;;;7.37;100.00
44140;BME280;29803;51.048;4.686;2023-03-03T16:33:32;102520.44;;;7.42;100.00
44140;BME280;29803;51.048;4.686;2023-03-03T16:44:37;102517.41;;;7.08;100.00
44140;BME280;29803;51.048;4.686;2023-03-03T16:56:20;102524.72;;;6.65;100.00
44140;BME280;29803;51.048;4.686;2023-03-03T17:07:53;102531.31;;;6.04;100.00
44140;BME280;29803;51.048;4.686;2023-03-03T17:10:45;102535.50;;;5.93;100.00
44140;BME280;29803;51.048;4.686;2023-03-03T17:16:29;102538.78;;;5.68;100.00
44140;BME280;29803;51.048;4.686;2023-03-03T17:27:46;102550.44;;;5.22;100.00
44140;BME280;29803;51.048;4.686;2023-03-03T17:30:41;102547.53;;;5.10;100.00
44140;BME280;29803;51.048;4.686;2023-03-03T17:44:19;102566.38;;;4.91;100.00
44140;BME280;29803;51.048;4.686;2023-03-03T17:47:01;102567.50;;;4.87;100.00
44140;BME280;29803;51.048;4.686;2023-03-03T18:01:07;102588.19;;;4.82;100.00
44140;BME280;29803;51.048;4.686;2023-03-03T18:07:08;102586.78;;;4.91;100.00
44140;BME280;29803;51.048;4.686;2023-03-03T18:21:29;102596.06;;;4.68;100.00
44140;BME280;29803;51.048;4.686;2023-03-03T18:27:13;102589.97;;;4.82;100.00
44140;BME280;29803;51.048;4.686;2023-03-03T18:43:56;102596.16;;;4.82;100.00
44140;BME280;29803;51.048;4.686;2023-03-03T18:49:00;102602.91;;;5.04;100.00
44140;BME280;29803;51.048;4.686;2023-03-03T18:51:50;102598.31;;;5.22;100.00
44140;BME280;29803;51.048;4.686;2023-03-03T18:54:24;102606.47;;;5.34;100.00
44140;BME280;29803;51.048;4.686;2023-03-03T18:57:16;102603.91;;;5.33;100.00
44140;BME280;29803;51.048;4.686;2023-03-03T19:00:21;102603.22;;;5.29;100.00
44140;BME280;29803;51.048;4.686;2023-03-03T19:02:54;102601.91;;;5.36;100.00
44140;BME280;29803;51.048;4.686;2023-03-03T19:05:35;102606.63;;;5.31;100.00
44140;BME280;29803;51.048;4.686;2023-03-03T19:08:28;102611.09;;;5.31;100.00
44140;BME280;29803;51.048;4.686;2023-03-03T19:11:01;102606.31;;;5.37;100.00
44140;BME280;29803;51.048;4.686;2023-03-03T19:21:44;102607.25;;;5.20;100.00
44140;BME280;29803;51.048;4.686;2023-03-03T19:24:28;102613.63;;;5.18;100.00
44140;BME280;29803;51.048;4.686;2023-03-03T19:27:14;102603.25;;;5.13;100.00
44140;BME280;29803;51.048;4.686;2023-03-03T19:39:02;102604.72;;;5.03;100.00